createdAt,value
2022-11-24T00:01:31.535Z,98554.38
2022-11-24T00:04:02.284Z,98565.34
2022-11-24T00:06:32.593Z,98559.47
2022-11-24T00:09:04.857Z,98569.41
2022-11-24T00:11:35.768Z,98566.59
2022-11-24T00:14:05.122Z,98563.28
2022-11-24T00:16:38.150Z,98570.19
2022-11-24T00:19:09.805Z,98570.56
2022-11-24T00:21:38.760Z,98568.84
2022-11-24T00:24:07.042Z,98565.81
2022-11-24T00:26:37.377Z,98566.41
2022-11-24T00:29:07.775Z,98569.22
2022-11-24T00:31:40.896Z,98565.06
2022-11-24T00:34:12.751Z,98568.06
2022-11-24T00:36:41.899Z,98562.34
2022-11-24T00:39:14.354Z,98566.16
2022-11-24T00:41:43.350Z,98557.16
2022-11-24T00:44:10.927Z,98561.22
2022-11-24T00:46:38.762Z,98562.25
2022-11-24T00:49:06.471Z,98562.53
2022-11-24T00:51:34.607Z,98579.31
2022-11-24T00:54:02.930Z,98567.97
2022-11-24T00:56:31.126Z,98573.84
2022-11-24T00:58:58.803Z,98572.78
2022-11-24T01:01:31.123Z,98579.22
2022-11-24T01:04:03.405Z,98579.84
2022-11-24T01:06:32.596Z,98585.22
2022-11-24T01:09:00.729Z,98579.25
2022-11-24T01:11:52.208Z,98576.41
2022-11-24T01:14:20.961Z,98581.34
2022-11-24T01:16:48.561Z,98578.22
2022-11-24T01:19:16.294Z,98578.78
2022-11-24T01:21:43.943Z,98589.75
2022-11-24T01:24:12.287Z,98590.00
2022-11-24T01:26:39.847Z,98590.22
2022-11-24T01:29:07.421Z,98592.09
2022-11-24T01:31:36.975Z,98587.88
2022-11-24T01:34:04.602Z,98605.00
2022-11-24T01:36:32.119Z,98603.16
2022-11-24T01:38:59.781Z,98597.59
2022-11-24T01:41:28.012Z,98594.00
2022-11-24T01:43:57.060Z,98591.56
2022-11-24T01:46:47.029Z,98587.91
2022-11-24T01:49:22.682Z,98591.84
2022-11-24T01:52:27.549Z,98590.25
2022-11-24T01:55:04.136Z,98595.25
2022-11-24T01:58:01.053Z,98597.72
2022-11-24T02:00:28.654Z,98588.09
2022-11-24T02:02:56.435Z,98590.94
2022-11-24T02:06:11.985Z,98588.03
2022-11-24T02:08:49.249Z,98592.19
2022-11-24T02:11:16.872Z,98594.88
2022-11-24T02:13:46.475Z,98591.22
2022-11-24T02:16:14.007Z,98598.25
2022-11-24T02:18:43.330Z,98604.00
2022-11-24T02:21:13.806Z,98600.00
2022-11-24T02:24:32.391Z,98607.47
2022-11-24T02:27:00.246Z,98595.81
2022-11-24T02:29:27.832Z,98599.19
2022-11-24T02:32:06.482Z,98596.94
2022-11-24T02:34:34.573Z,98600.81
2022-11-24T02:37:02.465Z,98597.56
2022-11-24T02:39:30.101Z,98592.69
2022-11-24T02:42:06.559Z,98592.50
2022-11-24T02:44:41.144Z,98583.59
2022-11-24T02:47:13.783Z,98584.72
2022-11-24T02:49:41.789Z,98585.59
2022-11-24T02:52:09.576Z,98585.72
2022-11-24T02:54:37.344Z,98581.75
2022-11-24T02:57:05.130Z,98577.41
2022-11-24T02:59:32.687Z,98571.72
2022-11-24T03:02:00.286Z,98570.47
2022-11-24T03:04:27.804Z,98572.47
2022-11-24T03:06:55.878Z,98565.88
2022-11-24T03:09:23.438Z,98566.47
2022-11-24T03:11:50.950Z,98561.75
2022-11-24T03:14:18.507Z,98566.19
2022-11-24T03:16:45.977Z,98571.66
2022-11-24T03:19:13.663Z,98580.09
2022-11-24T03:21:41.299Z,98580.72
2022-11-24T03:24:09.123Z,98579.38
2022-11-24T03:26:36.685Z,98579.25
2022-11-24T03:29:04.326Z,98586.00
2022-11-24T03:31:31.891Z,98581.97
2022-11-24T03:33:59.550Z,98587.81
2022-11-24T03:36:27.370Z,98595.91
2022-11-24T03:38:54.976Z,98598.09
2022-11-24T03:41:22.451Z,98596.75
2022-11-24T03:43:49.918Z,98601.69
2022-11-24T03:46:17.503Z,98608.03
2022-11-24T03:48:45.008Z,98602.81
2022-11-24T03:51:12.558Z,98609.13
2022-11-24T03:53:40.390Z,98615.41
2022-11-24T03:56:08.176Z,98607.53
2022-11-24T03:58:36.147Z,98615.22
2022-11-24T04:01:03.898Z,98619.84
2022-11-24T04:03:31.741Z,98611.13
2022-11-24T04:05:59.342Z,98613.41
2022-11-24T04:08:26.864Z,98618.91
2022-11-24T04:10:55.331Z,98612.56
2022-11-24T04:13:26.252Z,98620.31
2022-11-24T04:15:55.012Z,98619.06
2022-11-24T04:18:22.799Z,98624.19
2022-11-24T04:20:52.407Z,98624.19
2022-11-24T04:23:21.030Z,98631.72
2022-11-24T04:25:50.339Z,98638.94
2022-11-24T04:28:18.865Z,98634.47
2022-11-24T04:30:46.372Z,98636.31
2022-11-24T04:33:14.451Z,98633.09
2022-11-24T04:35:42.053Z,98637.06
2022-11-24T04:38:09.626Z,98643.50
2022-11-24T04:40:38.350Z,98641.78
2022-11-24T04:43:05.997Z,98640.22
2022-11-24T04:45:33.432Z,98643.03
2022-11-24T04:48:00.928Z,98638.44
2022-11-24T04:50:28.413Z,98641.69
2022-11-24T04:52:56.096Z,98644.81
2022-11-24T04:55:23.722Z,98650.19
2022-11-24T04:57:51.243Z,98655.28
2022-11-24T05:00:19.638Z,98652.00
2022-11-24T05:02:47.205Z,98655.53
2022-11-24T05:05:14.942Z,98664.84
2022-11-24T05:07:42.470Z,98673.34
2022-11-24T05:10:28.445Z,98684.75
2022-11-24T05:12:59.335Z,98671.63
2022-11-24T05:15:27.144Z,98672.06
2022-11-24T05:17:55.225Z,98673.00
2022-11-24T05:20:22.841Z,98668.53
2022-11-24T05:22:50.556Z,98670.97
2022-11-24T05:25:18.438Z,98678.41
2022-11-24T05:27:46.044Z,98673.00
2022-11-24T05:30:14.095Z,98680.56
2022-11-24T05:32:41.599Z,98668.72
2022-11-24T05:35:09.887Z,98675.50
2022-11-24T05:37:37.999Z,98679.63
2022-11-24T05:40:07.197Z,98678.41
2022-11-24T05:42:46.234Z,98687.28
2022-11-24T05:45:21.216Z,98686.91
2022-11-24T05:47:51.419Z,98691.28
2022-11-24T05:50:22.167Z,98699.16
2022-11-24T05:52:50.749Z,98693.50
2022-11-24T05:55:19.704Z,98701.66
2022-11-24T05:57:47.343Z,98703.38
2022-11-24T06:00:18.044Z,98706.78
2022-11-24T06:02:45.713Z,98711.13
2022-11-24T06:05:13.292Z,98709.22
2022-11-24T06:07:41.466Z,98708.16
2022-11-24T06:10:09.472Z,98707.06
2022-11-24T06:12:37.073Z,98709.53
2022-11-24T06:15:05.174Z,98716.00
2022-11-24T06:17:32.673Z,98724.22
2022-11-24T06:20:00.199Z,98720.25
2022-11-24T06:22:27.931Z,98732.22
2022-11-24T06:24:55.375Z,98737.56
2022-11-24T06:27:23.193Z,98734.25
2022-11-24T06:29:50.982Z,98735.28
2022-11-24T06:32:18.776Z,98743.91
2022-11-24T06:34:46.423Z,98748.09
2022-11-24T06:37:13.914Z,98745.88
2022-11-24T06:39:41.389Z,98753.53
2022-11-24T06:42:08.876Z,98755.38
2022-11-24T06:44:36.624Z,98745.41
2022-11-24T06:47:04.262Z,98744.25
2022-11-24T06:49:31.708Z,98754.28
2022-11-24T06:51:59.180Z,98749.03
2022-11-24T06:54:26.708Z,98754.19
2022-11-24T06:56:59.030Z,98757.41
2022-11-24T06:59:27.740Z,98758.38
2022-11-24T07:01:55.432Z,98766.41
2022-11-24T07:04:22.984Z,98756.59
2022-11-24T07:06:50.479Z,98755.44
2022-11-24T07:09:17.956Z,98757.25
2022-11-24T07:11:45.437Z,98758.13
2022-11-24T07:14:12.967Z,98760.22
2022-11-24T07:16:40.961Z,98762.16
2022-11-24T07:19:11.120Z,98756.63
2022-11-24T07:21:38.665Z,98766.50
2022-11-24T07:24:06.665Z,98772.50
2022-11-24T07:26:37.491Z,98770.66
2022-11-24T07:29:06.154Z,98780.16
2022-11-24T07:31:33.734Z,98774.16
2022-11-24T07:34:01.272Z,98770.88
2022-11-24T07:36:28.888Z,98777.19
2022-11-24T07:38:56.347Z,98771.63
2022-11-24T07:41:23.911Z,98776.44
2022-11-24T07:43:52.009Z,98773.69
2022-11-24T07:46:21.011Z,98779.16
2022-11-24T07:48:49.343Z,98768.03
2022-11-24T07:51:17.309Z,98772.38
2022-11-24T07:53:45.728Z,98777.06
2022-11-24T07:56:13.451Z,98764.22
2022-11-24T07:58:40.945Z,98775.22
2022-11-24T08:01:17.677Z,98778.03
2022-11-24T08:03:46.516Z,98777.78
2022-11-24T08:06:25.077Z,98775.13
2022-11-24T08:08:57.926Z,98772.22
2022-11-24T08:11:26.217Z,98773.06
2022-11-24T08:13:54.059Z,98776.41
2022-11-24T08:16:21.829Z,98770.16
2022-11-24T08:18:55.187Z,98766.56
2022-11-24T08:21:23.691Z,98769.81
2022-11-24T08:23:56.115Z,98769.91
2022-11-24T08:26:25.246Z,98768.34
2022-11-24T08:28:58.696Z,98776.53
2022-11-24T08:31:33.349Z,98767.66
2022-11-24T08:34:03.162Z,98763.25
2022-11-24T08:36:31.168Z,98768.38
2022-11-24T08:39:01.662Z,98778.50
2022-11-24T08:41:30.552Z,98778.47
2022-11-24T08:43:58.201Z,98784.06
2022-11-24T08:46:25.952Z,98784.91
2022-11-24T08:48:56.386Z,98775.47
2022-11-24T08:51:27.000Z,98787.25
2022-11-24T08:54:00.173Z,98771.75
2022-11-24T08:56:29.925Z,98766.06
2022-11-24T08:59:01.015Z,98762.09
2022-11-24T09:01:29.613Z,98770.19
2022-11-24T09:03:57.573Z,98777.41
2022-11-24T09:06:30.254Z,98769.78
2022-11-24T09:09:01.472Z,98771.56
2022-11-24T09:11:30.809Z,98775.34
2022-11-24T09:13:58.308Z,98778.41
2022-11-24T09:16:29.067Z,98778.91
2022-11-24T09:19:01.256Z,98774.56
2022-11-24T09:21:30.779Z,98769.09
2022-11-24T09:23:58.664Z,98760.97
2022-11-24T09:26:29.857Z,98770.00
2022-11-24T09:29:02.398Z,98764.22
2022-11-24T09:31:36.087Z,98766.50
2022-11-24T09:34:07.604Z,98764.50
2022-11-24T09:36:35.922Z,98756.22
2022-11-24T09:39:04.234Z,98760.47
2022-11-24T09:41:31.644Z,98752.59
2022-11-24T09:44:29.301Z,98754.88
2022-11-24T09:47:32.845Z,98744.78
2022-11-24T09:50:06.874Z,98744.09
2022-11-24T09:53:04.114Z,98747.31
2022-11-24T09:55:49.938Z,98737.72
2022-11-24T09:58:41.503Z,98735.06
2022-11-24T10:01:17.979Z,98742.91
2022-11-24T10:03:50.960Z,98740.16
2022-11-24T10:06:25.105Z,98732.59
2022-11-24T10:09:23.768Z,98729.44
2022-11-24T10:12:23.495Z,98726.19
2022-11-24T10:15:02.581Z,98733.03
2022-11-24T10:17:45.607Z,98723.75
2022-11-24T10:20:39.817Z,98726.59
2022-11-24T10:23:40.923Z,98717.16
2022-11-24T10:26:39.848Z,98716.41
2022-11-24T10:29:51.377Z,98711.56
2022-11-24T10:32:37.170Z,98717.75
2022-11-24T10:35:35.248Z,98723.38
2022-11-24T10:38:22.116Z,98713.56
2022-11-24T10:41:08.965Z,98704.88
2022-11-24T10:43:36.457Z,98705.44
2022-11-24T10:46:15.872Z,98704.75
2022-11-24T10:48:53.518Z,98712.06
2022-11-24T10:51:45.151Z,98715.84
2022-11-24T10:54:20.295Z,98706.28
2022-11-24T10:56:51.916Z,98712.03
2022-11-24T10:59:37.613Z,98711.56
2022-11-24T11:02:33.232Z,98700.91
2022-11-24T11:05:35.398Z,98702.25
2022-11-24T11:08:16.832Z,98706.56
2022-11-24T11:10:46.713Z,98698.59
2022-11-24T11:13:26.634Z,98706.81
2022-11-24T11:15:55.877Z,98706.56
2022-11-24T11:18:29.227Z,98694.69
2022-11-24T11:21:01.920Z,98694.16
2022-11-24T11:23:36.005Z,98687.91
2022-11-24T11:26:25.530Z,98688.94
2022-11-24T11:34:55.895Z,98689.38
2022-11-24T11:37:31.460Z,98679.56
2022-11-24T11:39:59.577Z,98680.34
2022-11-24T11:43:01.368Z,98681.34
2022-11-24T11:45:43.628Z,98685.16
2022-11-24T11:48:42.413Z,98678.41
2022-11-24T11:52:17.307Z,98687.19
2022-11-24T11:55:13.759Z,98678.84
2022-11-24T11:58:08.598Z,98687.59
2022-11-24T12:00:42.600Z,98681.72
2022-11-24T12:03:17.141Z,98675.28
2022-11-24T12:06:22.739Z,98678.72
2022-11-24T12:09:21.538Z,98683.09
2022-11-24T12:12:23.962Z,98685.03
2022-11-24T12:15:32.880Z,98678.81
2022-11-24T12:18:54.990Z,98687.25
2022-11-24T12:21:26.846Z,98685.97
2022-11-24T12:24:37.215Z,98681.06
2022-11-24T12:27:26.472Z,98686.53
2022-11-24T12:30:05.423Z,98692.22
2022-11-24T12:32:53.499Z,98698.41
2022-11-24T12:35:28.739Z,98687.16
2022-11-24T12:38:28.621Z,98698.16
2022-11-24T12:41:42.015Z,98694.91
2022-11-24T12:44:39.366Z,98699.25
2022-11-24T12:47:23.869Z,98693.44
2022-11-24T12:50:20.247Z,98708.84
2022-11-24T12:53:10.543Z,98691.72
2022-11-24T12:55:39.530Z,98695.38
2022-11-24T12:58:27.839Z,98693.22
2022-11-24T13:01:23.029Z,98698.28
2022-11-24T13:04:11.912Z,98707.88
2022-11-24T13:07:31.504Z,98715.00
2022-11-24T13:13:19.114Z,98713.97
2022-11-24T13:19:20.447Z,98703.66
2022-11-24T13:21:59.845Z,98708.97
2022-11-24T13:24:32.084Z,98704.81
2022-11-24T13:27:15.253Z,98717.44
2022-11-24T13:29:45.447Z,98724.53
2022-11-24T13:32:13.077Z,98717.81
2022-11-24T13:34:40.539Z,98729.19
2022-11-24T13:37:31.564Z,98718.84
2022-11-24T13:40:12.433Z,98727.69
2022-11-24T13:42:57.965Z,98729.97
2022-11-24T13:45:41.031Z,98736.41
2022-11-24T13:48:21.709Z,98741.84
2022-11-24T13:50:56.209Z,98744.75
2022-11-24T13:53:48.320Z,98741.44
2022-11-24T13:56:15.730Z,98754.28
2022-11-24T13:58:59.020Z,98760.72
2022-11-24T14:01:33.357Z,98750.88
2022-11-24T14:04:43.200Z,98756.38
2022-11-24T14:07:15.274Z,98754.47
2022-11-24T14:09:45.580Z,98768.00
2022-11-24T14:12:25.408Z,98759.53
2022-11-24T14:14:57.403Z,98765.16
2022-11-24T14:17:28.845Z,98765.63
2022-11-24T14:19:58.437Z,98767.41
2022-11-24T14:22:37.184Z,98775.53
2022-11-24T14:25:05.928Z,98778.59
2022-11-24T14:27:37.780Z,98781.78
2022-11-24T14:30:13.455Z,98781.66
2022-11-24T14:32:45.609Z,98783.59
2022-11-24T14:35:23.441Z,98790.13
2022-11-24T14:37:51.337Z,98788.91
2022-11-24T14:40:48.418Z,98792.34
2022-11-24T14:43:34.671Z,98787.88
2022-11-24T14:46:09.407Z,98799.78
2022-11-24T14:48:57.947Z,98801.09
2022-11-24T14:51:30.750Z,98800.59
2022-11-24T14:54:02.516Z,98806.00
2022-11-24T14:56:36.453Z,98810.72
2022-11-24T14:59:20.492Z,98815.22
2022-11-24T15:01:48.093Z,98822.91
2022-11-24T15:07:26.702Z,98835.28
2022-11-24T15:10:00.452Z,98840.22
2022-11-24T15:12:41.828Z,98844.59
2022-11-24T15:15:15.187Z,98858.59
2022-11-24T15:18:00.110Z,98856.66
2022-11-24T15:20:42.284Z,98865.34
2022-11-24T15:23:33.875Z,98866.44
2022-11-24T15:26:04.831Z,98873.22
2022-11-24T15:28:32.735Z,98868.03
2022-11-24T15:31:03.643Z,98872.66
2022-11-24T15:33:33.129Z,98879.47
2022-11-24T15:36:00.871Z,98884.00
2022-11-24T15:38:30.118Z,98878.94
2022-11-24T15:41:01.208Z,98885.25
2022-11-24T15:43:37.866Z,98887.13
2022-11-24T15:46:06.849Z,98890.66
2022-11-24T15:48:35.801Z,98893.13
2022-11-24T15:51:09.333Z,98887.69
2022-11-24T15:54:01.044Z,98883.53
2022-11-24T15:56:34.240Z,98886.59
2022-11-24T15:59:03.258Z,98880.88
2022-11-24T16:01:34.719Z,98887.13
2022-11-24T16:04:03.899Z,98888.91
2022-11-24T16:06:33.738Z,98888.41
2022-11-24T16:09:01.581Z,98885.38
2022-11-24T16:11:31.426Z,98891.72
2022-11-24T16:13:59.250Z,98895.25
2022-11-24T16:16:30.655Z,98907.38
2022-11-24T16:18:58.480Z,98906.09
2022-11-24T16:21:27.870Z,98911.34
2022-11-24T16:23:58.451Z,98919.78
2022-11-24T16:26:26.102Z,98918.34
2022-11-24T16:28:58.757Z,98927.78
2022-11-24T16:31:29.536Z,98918.81
2022-11-24T16:34:03.786Z,98927.00
2022-11-24T16:36:33.931Z,98929.94
2022-11-24T16:39:03.584Z,98930.66
2022-11-24T16:41:39.545Z,98934.59
2022-11-24T16:44:08.987Z,98937.41
2022-11-24T16:46:45.346Z,98936.56
2022-11-24T16:49:20.169Z,98946.03
2022-11-24T16:51:54.027Z,98937.50
2022-11-24T16:54:23.996Z,98952.09
2022-11-24T16:56:55.719Z,98957.13
2022-11-24T16:59:25.780Z,98951.66
2022-11-24T17:01:56.738Z,98957.78
2022-11-24T17:04:27.160Z,98949.47
2022-11-24T17:06:56.032Z,98953.00
2022-11-24T17:09:47.436Z,98953.25
2022-11-24T17:12:14.988Z,98949.69
2022-11-24T17:14:44.358Z,98957.56
2022-11-24T17:17:20.021Z,98968.38
2022-11-24T17:19:48.506Z,98972.22
2022-11-24T17:22:16.065Z,98974.47
2022-11-24T17:24:43.665Z,98975.00
2022-11-24T17:27:11.201Z,98976.81
2022-11-24T17:29:39.113Z,98974.22
2022-11-24T17:32:08.270Z,98969.94
2022-11-24T17:34:38.016Z,98978.72
2022-11-24T17:37:06.131Z,98977.59
2022-11-24T17:39:34.466Z,98982.38
2022-11-24T17:42:02.459Z,98986.38
2022-11-24T17:44:32.340Z,98982.97
2022-11-24T17:47:01.175Z,98989.13
2022-11-24T17:49:28.755Z,98982.69
2022-11-24T17:51:59.354Z,98994.22
2022-11-24T17:54:45.993Z,98993.91
2022-11-24T17:57:14.659Z,98990.38
2022-11-24T17:59:42.121Z,98986.25
2022-11-24T18:02:12.410Z,98993.75
2022-11-24T18:04:40.480Z,99004.56
2022-11-24T18:09:53.296Z,99004.72
2022-11-24T18:12:21.521Z,99002.22
2022-11-24T18:14:50.554Z,99003.63
2022-11-24T18:17:19.250Z,99007.44
2022-11-24T18:19:48.926Z,99013.78
2022-11-24T18:22:36.605Z,99010.72
2022-11-24T18:25:08.222Z,99009.00
2022-11-24T18:27:36.441Z,99007.03
2022-11-24T18:30:25.377Z,99007.16
2022-11-24T18:32:58.523Z,99008.22
2022-11-24T18:35:29.094Z,99008.50
2022-11-24T18:37:56.778Z,99015.25
2022-11-24T18:40:24.534Z,99016.53
2022-11-24T18:43:00.903Z,99012.84
2022-11-24T18:45:31.740Z,99019.91
2022-11-24T18:48:08.399Z,99020.41
2022-11-24T18:50:36.899Z,99022.22
2022-11-24T18:53:06.332Z,99032.69
2022-11-24T18:55:34.691Z,99022.72
2022-11-24T18:58:04.126Z,99028.25
2022-11-24T19:00:36.214Z,99032.38
2022-11-24T19:03:04.523Z,99033.94
2022-11-24T19:05:32.254Z,99029.28
2022-11-24T19:07:59.929Z,99033.88
2022-11-24T19:10:28.041Z,99035.28
2022-11-24T19:12:57.055Z,99037.00
2022-11-24T19:15:25.326Z,99041.03
2022-11-24T19:17:54.186Z,99049.63
2022-11-24T19:20:23.355Z,99044.41
2022-11-24T19:22:52.519Z,99040.56
2022-11-24T19:25:30.776Z,99049.94
2022-11-24T19:28:00.889Z,99047.00
2022-11-24T19:30:29.462Z,99049.78
2022-11-24T19:32:58.156Z,99050.09
2022-11-24T19:35:25.729Z,99056.28
2022-11-24T19:37:53.957Z,99060.56
2022-11-24T19:40:21.532Z,99065.50
2022-11-24T19:42:49.306Z,99051.19
2022-11-24T19:45:18.494Z,99063.38
2022-11-24T19:47:48.618Z,99057.19
2022-11-24T19:50:17.069Z,99055.19
2022-11-24T19:52:48.361Z,99063.81
2022-11-24T19:55:16.664Z,99065.00
2022-11-24T19:57:44.316Z,99066.88
2022-11-24T20:00:13.154Z,99062.41
2022-11-24T20:02:40.896Z,99068.91
2022-11-24T20:05:09.005Z,99074.88
2022-11-24T20:07:36.715Z,99078.28
2022-11-24T20:10:07.975Z,99072.72
2022-11-24T20:12:35.813Z,99078.44
2022-11-24T20:15:03.586Z,99079.22
2022-11-24T20:17:32.905Z,99085.50
2022-11-24T20:20:01.110Z,99092.28
2022-11-24T20:22:32.167Z,99079.50
2022-11-24T20:25:03.402Z,99078.28
2022-11-24T20:27:32.010Z,99071.03
2022-11-24T20:29:59.995Z,99075.34
2022-11-24T20:32:27.688Z,99088.75
2022-11-24T20:34:55.762Z,99072.91
2022-11-24T20:37:24.121Z,99073.66
2022-11-24T20:39:51.716Z,99068.28
2022-11-24T20:42:19.316Z,99073.69
2022-11-24T20:44:46.843Z,99075.84
2022-11-24T20:47:16.451Z,99083.50
2022-11-24T20:49:44.054Z,99072.59
2022-11-24T20:52:11.761Z,99079.50
2022-11-24T20:54:39.299Z,99088.13
2022-11-24T20:57:07.523Z,99085.97
2022-11-24T20:59:35.157Z,99098.75
2022-11-24T21:02:02.731Z,99092.00
2022-11-24T21:04:30.340Z,99089.84
2022-11-24T21:06:58.094Z,99087.50
2022-11-24T21:09:27.273Z,99094.13
2022-11-24T21:11:54.943Z,99083.38
2022-11-24T21:14:22.434Z,99097.69
2022-11-24T21:16:51.377Z,99101.69
2022-11-24T21:19:19.259Z,99099.06
2022-11-24T21:21:48.830Z,99095.34
2022-11-24T21:24:21.659Z,99105.22
2022-11-24T21:26:52.258Z,99109.38
2022-11-24T21:29:23.778Z,99105.84
2022-11-24T21:31:51.797Z,99106.31
2022-11-24T21:34:19.593Z,99118.31
2022-11-24T21:36:48.076Z,99110.56
2022-11-24T21:39:16.696Z,99108.16
2022-11-24T21:41:44.515Z,99107.38
2022-11-24T21:44:14.138Z,99123.06
2022-11-24T21:46:48.111Z,99118.94
2022-11-24T21:49:18.715Z,99117.09
2022-11-24T21:51:46.243Z,99119.25
2022-11-24T21:54:13.765Z,99117.78
2022-11-24T21:56:41.817Z,99124.56
2022-11-24T21:59:09.516Z,99125.97
2022-11-24T22:01:37.034Z,99128.31
2022-11-24T22:04:04.825Z,99127.06
2022-11-24T22:06:33.319Z,99131.38
2022-11-24T22:09:01.042Z,99134.16
2022-11-24T22:11:28.480Z,99133.94
2022-11-24T22:13:55.939Z,99136.75
2022-11-24T22:16:26.186Z,99137.59
2022-11-24T22:18:53.978Z,99138.47
2022-11-24T22:21:24.467Z,99137.78
2022-11-24T22:23:53.896Z,99137.59
2022-11-24T22:26:23.810Z,99134.78
2022-11-24T22:28:53.000Z,99138.53
2022-11-24T22:31:29.568Z,99140.94
2022-11-24T22:33:59.956Z,99131.06
2022-11-24T22:36:31.319Z,99140.66
2022-11-24T22:39:05.200Z,99129.34
2022-11-24T22:41:35.205Z,99131.06
2022-11-24T22:44:03.338Z,99125.78
2022-11-24T22:46:32.822Z,99134.78
2022-11-24T22:49:02.236Z,99134.72
2022-11-24T22:51:35.000Z,99125.38
2022-11-24T22:54:05.615Z,99126.63
2022-11-24T22:56:34.429Z,99130.94
2022-11-24T22:59:03.289Z,99131.31
2022-11-24T23:01:33.711Z,99126.28
2022-11-24T23:04:02.460Z,99134.25
2022-11-24T23:06:32.706Z,99131.31
2022-11-24T23:09:02.034Z,99121.94
2022-11-24T23:11:37.401Z,99131.38
2022-11-24T23:14:14.017Z,99124.59
2022-11-24T23:16:42.302Z,99127.09
2022-11-24T23:19:10.227Z,99123.69
2022-11-24T23:21:38.816Z,99125.97
2022-11-24T23:24:07.827Z,99130.88
2022-11-24T23:26:38.868Z,99128.91
2022-11-24T23:29:07.692Z,99137.78
2022-11-24T23:31:35.596Z,99138.84
2022-11-24T23:34:04.756Z,99139.81
2022-11-24T23:36:33.513Z,99146.91
2022-11-24T23:39:18.813Z,99142.38
2022-11-24T23:41:46.312Z,99146.06
2022-11-24T23:44:13.741Z,99151.41
2022-11-24T23:46:41.244Z,99153.09
2022-11-24T23:49:08.748Z,99157.50
2022-11-24T23:51:36.249Z,99160.19
2022-11-24T23:54:09.651Z,99148.31
2022-11-24T23:56:37.981Z,99152.03
2022-11-24T23:59:06.155Z,99157.41
